Delta Virtual Airport Information Service

Cleveland Hopkins International Airport

ICAO: KCLE Country: United States
Latitude: 41.4103 Longitude: -81.8539
Latest Arrival : SWA2948 (KMKE-KCLE) Latest Departure : EDV5133 (1) (KCLE-KJFK)


WX CaptureLIVE
Data provided by noaa.gov | Fetched at 20:45:51

METAR : KCLE 250051Z 00000KT 10SM OVC043 08/02 A3016 RMK AO2 SLP233 T00780022 $

TAF : KCLE 242320Z 2500/2606 01006KT P6SM OVC040 FM250200 05006KT P6SM BKN035 FM251400 08007KT P6SM SCT040 OVC120 FM260200 10006KT P6SM OVC060


Runway Data for KCLE
Data provided by openaviationdata.com

Runway ID Mag Var Hdg Length Elevation Surface ILS Freq ILS Id ILS Slope
06L -7 56° 8995 ft 791 ft Concrete 111.55 ILIZ 3
06R -7 56° 8993 ft 791 ft Concrete 111.9 ICLE 3
06C -7 56° 7091 ft 791 ft Concrete -- -- --
10 -7 100° 6008 ft 791 ft Asphalt -- -- --
24L -7 236° 8993 ft 791 ft Concrete 109.9 IHPI 3
24R -7 236° 8995 ft 791 ft Concrete 111.55 IPVY 3
24C -7 236° 7091 ft 791 ft Concrete -- -- --
28 -7 280° 6008 ft 791 ft Asphalt 110.7 IPXP 3

Cleveland Hopkins International Airport, United States
Use only for reference purposes



Not for navigational purposes.